Terminal Aerodrome Forecast
Issued by NWS Paducah, KY

Home | Current Version | Previous Version | Text Only | Print | Product List | Glossary On
Versions: 1 2 3 4 5 6 7 8 9 10 11 12 13 14
149
FTUS43 KPAH 271720
TAFEVV
TAF
KEVV 271720Z 2718/2818 VRB04KT P6SM SCT040
     FM280000 00000KT P6SM SKC
     FM281500 07006KT P6SM SCT030 BKN200=

USA.gov is the U.S. government's official web portal to all federal, state and local government web resources and services.